sensor_id;sensor_type;location;lat;lon;timestamp;pressure;altitude;pressure_sealevel;temperature;humidity
23172;BME280;11754;42.664;23.594;2023-02-18T00:01:39;96180.25;;;3.09;54.77
23172;BME280;11754;42.664;23.594;2023-02-18T00:04:05;96189.09;;;3.06;55.08
23172;BME280;11754;42.664;23.594;2023-02-18T00:06:33;96184.13;;;3.03;55.43
23172;BME280;11754;42.664;23.594;2023-02-18T00:09:00;96191.31;;;3.00;55.44
23172;BME280;11754;42.664;23.594;2023-02-18T00:11:31;96183.69;;;2.97;55.39
23172;BME280;11754;42.664;23.594;2023-02-18T00:13:58;96172.84;;;2.90;55.73
23172;BME280;11754;42.664;23.594;2023-02-18T00:16:25;96171.38;;;2.86;55.77
23172;BME280;11754;42.664;23.594;2023-02-18T00:18:58;96169.78;;;2.83;55.92
23172;BME280;11754;42.664;23.594;2023-02-18T00:21:24;96164.91;;;2.79;56.29
23172;BME280;11754;42.664;23.594;2023-02-18T00:23:50;96160.09;;;2.73;56.49
23172;BME280;11754;42.664;23.594;2023-02-18T00:26:17;96147.47;;;2.67;56.54
23172;BME280;11754;42.664;23.594;2023-02-18T00:28:43;96159.13;;;2.74;56.57
23172;BME280;11754;42.664;23.594;2023-02-18T00:31:11;96146.53;;;2.68;56.79
23172;BME280;11754;42.664;23.594;2023-02-18T00:33:37;96143.00;;;2.69;56.71
23172;BME280;11754;42.664;23.594;2023-02-18T00:36:04;96144.66;;;2.70;56.66
23172;BME280;11754;42.664;23.594;2023-02-18T00:38:31;96143.00;;;2.69;56.87
23172;BME280;11754;42.664;23.594;2023-02-18T00:40:56;96145.09;;;2.63;57.02
23172;BME280;11754;42.664;23.594;2023-02-18T00:43:22;96132.97;;;2.62;57.20
23172;BME280;11754;42.664;23.594;2023-02-18T00:45:47;96131.50;;;2.58;57.41
23172;BME280;11754;42.664;23.594;2023-02-18T00:48:13;96130.44;;;2.48;57.55
23172;BME280;11754;42.664;23.594;2023-02-18T00:50:38;96124.59;;;2.45;57.84
23172;BME280;11754;42.664;23.594;2023-02-18T00:53:03;96127.50;;;2.40;58.00
23172;BME280;11754;42.664;23.594;2023-02-18T00:55:29;96115.72;;;2.34;58.10
23172;BME280;11754;42.664;23.594;2023-02-18T00:57:55;96133.75;;;2.37;58.38
23172;BME280;11754;42.664;23.594;2023-02-18T01:00:20;96136.06;;;2.42;58.59
23172;BME280;11754;42.664;23.594;2023-02-18T01:02:46;96123.97;;;2.41;58.48
23172;BME280;11754;42.664;23.594;2023-02-18T01:05:11;96123.44;;;2.36;58.57
23172;BME280;11754;42.664;23.594;2023-02-18T01:07:36;96122.50;;;2.37;58.72
23172;BME280;11754;42.664;23.594;2023-02-18T01:10:03;96132.72;;;2.40;58.29
23172;BME280;11754;42.664;23.594;2023-02-18T01:12:28;96132.72;;;2.40;57.85
23172;BME280;11754;42.664;23.594;2023-02-18T01:14:54;96130.88;;;2.42;57.82
23172;BME280;11754;42.664;23.594;2023-02-18T01:17:19;96131.59;;;2.44;57.76
23172;BME280;11754;42.664;23.594;2023-02-18T01:19:44;96130.31;;;2.37;57.80
23172;BME280;11754;42.664;23.594;2023-02-18T01:22:10;96117.91;;;2.28;58.04
23172;BME280;11754;42.664;23.594;2023-02-18T01:24:35;96123.13;;;2.28;57.82
23172;BME280;11754;42.664;23.594;2023-02-18T01:27:02;96119.53;;;2.16;57.81
23172;BME280;11754;42.664;23.594;2023-02-18T01:29:28;96109.34;;;2.13;57.90
23172;BME280;11754;42.664;23.594;2023-02-18T01:31:53;96120.75;;;2.10;58.16
23172;BME280;11754;42.664;23.594;2023-02-18T01:34:19;96117.59;;;2.05;57.93
23172;BME280;11754;42.664;23.594;2023-02-18T01:36:44;96124.69;;;2.03;57.55
23172;BME280;11754;42.664;23.594;2023-02-18T01:39:09;96121.16;;;2.04;57.25
23172;BME280;11754;42.664;23.594;2023-02-18T01:41:35;96119.41;;;1.90;57.49
23172;BME280;11754;42.664;23.594;2023-02-18T01:46:35;96111.47;;;1.79;58.49
23172;BME280;11754;42.664;23.594;2023-02-18T01:49:00;96117.91;;;1.74;58.74
23172;BME280;11754;42.664;23.594;2023-02-18T01:51:29;96123.84;;;1.76;58.84
23172;BME280;11754;42.664;23.594;2023-02-18T01:54:09;96120.50;;;1.74;58.93
23172;BME280;11754;42.664;23.594;2023-02-18T01:59:10;96130.63;;;1.64;59.17
23172;BME280;11754;42.664;23.594;2023-02-18T02:01:38;96123.03;;;1.61;59.54
23172;BME280;11754;42.664;23.594;2023-02-18T02:04:05;96122.84;;;1.64;59.63
23172;BME280;11754;42.664;23.594;2023-02-18T02:06:31;96118.47;;;1.64;59.65
23172;BME280;11754;42.664;23.594;2023-02-18T02:08:59;96119.72;;;1.59;60.38
23172;BME280;11754;42.664;23.594;2023-02-18T02:14:12;96122.19;;;1.60;60.38
23172;BME280;11754;42.664;23.594;2023-02-18T02:16:50;96121.75;;;1.54;60.65
23172;BME280;11754;42.664;23.594;2023-02-18T02:19:28;96122.56;;;1.54;61.19
23172;BME280;11754;42.664;23.594;2023-02-18T02:35:17;96131.50;;;1.50;61.50
23172;BME280;11754;42.664;23.594;2023-02-18T02:38:11;96136.69;;;1.50;61.62
23172;BME280;11754;42.664;23.594;2023-02-18T02:43:30;96122.41;;;1.43;61.65
23172;BME280;11754;42.664;23.594;2023-02-18T02:46:20;96126.41;;;1.34;62.00
23172;BME280;11754;42.664;23.594;2023-02-18T02:51:41;96118.22;;;1.26;62.43
23172;BME280;11754;42.664;23.594;2023-02-18T02:54:26;96122.13;;;1.19;62.74
23172;BME280;11754;42.664;23.594;2023-02-18T02:59:53;96121.69;;;1.12;63.19
23172;BME280;11754;42.664;23.594;2023-02-18T03:02:47;96134.41;;;1.17;63.18
23172;BME280;11754;42.664;23.594;2023-02-18T03:16:49;96120.56;;;1.16;63.23
23172;BME280;11754;42.664;23.594;2023-02-18T03:19:24;96133.38;;;1.19;62.97
23172;BME280;11754;42.664;23.594;2023-02-18T03:22:17;96126.13;;;1.25;63.05
23172;BME280;11754;42.664;23.594;2023-02-18T03:24:49;96127.59;;;1.29;62.75
23172;BME280;11754;42.664;23.594;2023-02-18T03:27:22;96136.16;;;1.31;62.51
23172;BME280;11754;42.664;23.594;2023-02-18T03:29:55;96137.81;;;1.32;62.42
23172;BME280;11754;42.664;23.594;2023-02-18T03:32:23;96135.97;;;1.34;62.23
23172;BME280;11754;42.664;23.594;2023-02-18T03:34:54;96150.63;;;1.35;61.96
23172;BME280;11754;42.664;23.594;2023-02-18T03:37:21;96160.09;;;1.36;61.71
23172;BME280;11754;42.664;23.594;2023-02-18T03:39:50;96156.00;;;1.32;60.85
23172;BME280;11754;42.664;23.594;2023-02-18T03:42:17;96161.22;;;1.32;60.54
23172;BME280;11754;42.664;23.594;2023-02-18T03:44:43;96172.91;;;1.25;60.29
23172;BME280;11754;42.664;23.594;2023-02-18T03:47:09;96166.75;;;1.11;60.41
23172;BME280;11754;42.664;23.594;2023-02-18T03:49:35;96170.41;;;1.09;60.53
23172;BME280;11754;42.664;23.594;2023-02-18T03:52:00;96176.78;;;1.03;61.17
23172;BME280;11754;42.664;23.594;2023-02-18T03:54:26;96174.38;;;1.00;61.46
23172;BME280;11754;42.664;23.594;2023-02-18T03:56:51;96183.28;;;0.96;61.33
23172;BME280;11754;42.664;23.594;2023-02-18T03:59:17;96176.59;;;0.92;61.77
23172;BME280;11754;42.664;23.594;2023-02-18T04:01:42;96178.25;;;0.93;61.86
23172;BME280;11754;42.664;23.594;2023-02-18T04:04:07;96182.06;;;0.87;62.04
23172;BME280;11754;42.664;23.594;2023-02-18T04:06:33;96178.63;;;0.87;62.32
23172;BME280;11754;42.664;23.594;2023-02-18T04:08:59;96168.25;;;0.87;62.31
23172;BME280;11754;42.664;23.594;2023-02-18T04:11:24;96181.13;;;0.88;62.48
23172;BME280;11754;42.664;23.594;2023-02-18T04:13:50;96170.06;;;0.85;62.57
23172;BME280;11754;42.664;23.594;2023-02-18T04:16:15;96166.84;;;0.95;62.36
23172;BME280;11754;42.664;23.594;2023-02-18T04:18:40;96169.16;;;1.00;62.19
23172;BME280;11754;42.664;23.594;2023-02-18T04:21:06;96165.91;;;0.96;62.84
23172;BME280;11754;42.664;23.594;2023-02-18T04:23:31;96161.31;;;1.02;62.54
23172;BME280;11754;42.664;23.594;2023-02-18T04:25:57;96154.88;;;1.07;62.44
23172;BME280;11754;42.664;23.594;2023-02-18T04:28:22;96152.94;;;1.11;62.35
23172;BME280;11754;42.664;23.594;2023-02-18T04:30:47;96150.63;;;1.20;62.21
23172;BME280;11754;42.664;23.594;2023-02-18T04:33:16;96137.47;;;1.24;62.08
23172;BME280;11754;42.664;23.594;2023-02-18T04:35:41;96138.00;;;1.29;62.14
23172;BME280;11754;42.664;23.594;2023-02-18T04:38:08;96149.88;;;1.33;62.09
23172;BME280;11754;42.664;23.594;2023-02-18T04:40:34;96140.78;;;1.40;61.81
23172;BME280;11754;42.664;23.594;2023-02-18T04:43:00;96142.38;;;1.42;61.81
23172;BME280;11754;42.664;23.594;2023-02-18T04:45:26;96148.97;;;1.48;61.49
23172;BME280;11754;42.664;23.594;2023-02-18T04:47:52;96146.16;;;1.51;61.29
23172;BME280;11754;42.664;23.594;2023-02-18T04:50:19;96160.84;;;1.52;61.33
23172;BME280;11754;42.664;23.594;2023-02-18T04:52:45;96153.41;;;1.46;61.64
23172;BME280;11754;42.664;23.594;2023-02-18T04:55:10;96150.34;;;1.39;62.15
23172;BME280;11754;42.664;23.594;2023-02-18T04:57:36;96166.78;;;1.40;62.23
23172;BME280;11754;42.664;23.594;2023-02-18T05:00:06;96166.06;;;1.38;62.11
23172;BME280;11754;42.664;23.594;2023-02-18T05:02:32;96161.75;;;1.37;62.41
23172;BME280;11754;42.664;23.594;2023-02-18T05:04:58;96157.59;;;1.34;62.46
23172;BME280;11754;42.664;23.594;2023-02-18T05:07:23;96158.44;;;1.35;62.10
23172;BME280;11754;42.664;23.594;2023-02-18T05:09:49;96149.88;;;1.33;62.32
23172;BME280;11754;42.664;23.594;2023-02-18T05:12:14;96151.56;;;1.34;62.44
23172;BME280;11754;42.664;23.594;2023-02-18T05:14:40;96158.44;;;1.35;62.43
23172;BME280;11754;42.664;23.594;2023-02-18T05:17:05;96153.53;;;1.44;62.40
23172;BME280;11754;42.664;23.594;2023-02-18T05:19:30;96155.84;;;1.49;62.18
23172;BME280;11754;42.664;23.594;2023-02-18T05:21:56;96157.13;;;1.56;62.25
23172;BME280;11754;42.664;23.594;2023-02-18T05:24:21;96153.41;;;1.60;61.75
23172;BME280;11754;42.664;23.594;2023-02-18T05:26:46;96159.53;;;1.74;61.62
23172;BME280;11754;42.664;23.594;2023-02-18T05:29:12;96165.84;;;1.70;61.41
23172;BME280;11754;42.664;23.594;2023-02-18T05:31:37;96150.97;;;1.72;61.30
23172;BME280;11754;42.664;23.594;2023-02-18T05:34:03;96163.03;;;1.73;61.33
23172;BME280;11754;42.664;23.594;2023-02-18T05:36:28;96159.06;;;1.67;61.22
23172;BME280;11754;42.664;23.594;2023-02-18T05:38:54;96140.09;;;1.65;61.21
23172;BME280;11754;42.664;23.594;2023-02-18T05:41:19;96144.81;;;1.73;61.36
23172;BME280;11754;42.664;23.594;2023-02-18T05:43:44;96159.13;;;1.80;60.98
23172;BME280;11754;42.664;23.594;2023-02-18T05:46:28;96154.75;;;1.80;61.05
23172;BME280;11754;42.664;23.594;2023-02-18T05:48:54;96160.97;;;1.92;61.07
23172;BME280;11754;42.664;23.594;2023-02-18T05:51:19;96161.13;;;2.03;60.38
23172;BME280;11754;42.664;23.594;2023-02-18T05:53:45;96167.91;;;2.06;60.54
23172;BME280;11754;42.664;23.594;2023-02-18T05:56:10;96167.50;;;2.12;60.59
23172;BME280;11754;42.664;23.594;2023-02-18T05:58:35;96165.34;;;2.19;60.43
23172;BME280;11754;42.664;23.594;2023-02-18T06:01:01;96163.72;;;2.30;60.36
23172;BME280;11754;42.664;23.594;2023-02-18T06:03:26;96162.50;;;2.36;60.24
23172;BME280;11754;42.664;23.594;2023-02-18T06:05:52;96159.63;;;2.53;59.92
23172;BME280;11754;42.664;23.594;2023-02-18T06:08:17;96157.69;;;2.70;59.65
23172;BME280;11754;42.664;23.594;2023-02-18T06:10:44;96166.16;;;2.86;59.27
23172;BME280;11754;42.664;23.594;2023-02-18T06:13:10;96162.94;;;3.08;58.76
23172;BME280;11754;42.664;23.594;2023-02-18T06:15:35;96154.69;;;3.01;58.39
23172;BME280;11754;42.664;23.594;2023-02-18T06:18:00;96150.63;;;2.97;58.74
23172;BME280;11754;42.664;23.594;2023-02-18T06:20:26;96140.53;;;3.05;58.55
23172;BME280;11754;42.664;23.594;2023-02-18T06:22:51;96147.63;;;3.29;59.05
23172;BME280;11754;42.664;23.594;2023-02-18T06:25:17;96139.56;;;3.57;58.06
23172;BME280;11754;42.664;23.594;2023-02-18T06:27:42;96145.44;;;3.85;57.62
23172;BME280;11754;42.664;23.594;2023-02-18T06:30:08;96141.41;;;4.05;56.98
23172;BME280;11754;42.664;23.594;2023-02-18T06:32:33;96156.81;;;4.21;56.31
23172;BME280;11754;42.664;23.594;2023-02-18T06:34:59;96153.41;;;4.31;56.13
23172;BME280;11754;42.664;23.594;2023-02-18T06:37:24;96163.22;;;4.41;55.88
23172;BME280;11754;42.664;23.594;2023-02-18T06:39:49;96156.47;;;4.49;55.66
23172;BME280;11754;42.664;23.594;2023-02-18T06:42:15;96167.53;;;4.88;55.70
23172;BME280;11754;42.664;23.594;2023-02-18T06:44:40;96154.91;;;5.17;54.37
23172;BME280;11754;42.664;23.594;2023-02-18T06:47:05;96159.31;;;5.28;54.06
23172;BME280;11754;42.664;23.594;2023-02-18T06:49:31;96157.53;;;5.51;53.55
23172;BME280;11754;42.664;23.594;2023-02-18T06:51:57;96148.63;;;5.53;52.56
23172;BME280;11754;42.664;23.594;2023-02-18T06:54:22;96153.16;;;5.63;52.63
23172;BME280;11754;42.664;23.594;2023-02-18T06:56:49;96143.16;;;5.57;52.37
23172;BME280;11754;42.664;23.594;2023-02-18T06:59:15;96156.00;;;5.71;52.31
23172;BME280;11754;42.664;23.594;2023-02-18T07:01:40;96152.31;;;5.85;51.65
23172;BME280;11754;42.664;23.594;2023-02-18T07:04:05;96146.47;;;6.04;51.31
23172;BME280;11754;42.664;23.594;2023-02-18T07:06:31;96144.59;;;6.38;50.47
23172;BME280;11754;42.664;23.594;2023-02-18T07:08:56;96149.19;;;6.57;50.25
23172;BME280;11754;42.664;23.594;2023-02-18T07:11:22;96122.22;;;6.66;50.22
23172;BME280;11754;42.664;23.594;2023-02-18T07:13:47;96155.03;;;7.02;49.67
23172;BME280;11754;42.664;23.594;2023-02-18T07:16:12;96141.16;;;7.32;48.48
23172;BME280;11754;42.664;23.594;2023-02-18T07:18:38;96143.97;;;7.40;48.41
23172;BME280;11754;42.664;23.594;2023-02-18T07:21:03;96146.25;;;7.55;47.76
23172;BME280;11754;42.664;23.594;2023-02-18T07:23:29;96146.69;;;7.60;47.53
23172;BME280;11754;42.664;23.594;2023-02-18T07:26:06;96130.72;;;7.73;48.06
23172;BME280;11754;42.664;23.594;2023-02-18T07:28:31;96127.84;;;7.85;48.11
23172;BME280;11754;42.664;23.594;2023-02-18T07:30:56;96135.94;;;8.13;47.82
23172;BME280;11754;42.664;23.594;2023-02-18T07:33:22;96118.81;;;8.28;47.01
23172;BME280;11754;42.664;23.594;2023-02-18T07:36:00;96129.09;;;8.51;47.10
23172;BME280;11754;42.664;23.594;2023-02-18T07:38:27;96135.50;;;8.77;46.07
23172;BME280;11754;42.664;23.594;2023-02-18T07:40:53;96121.88;;;9.01;45.71
23172;BME280;11754;42.664;23.594;2023-02-18T07:43:19;96132.84;;;8.97;45.42
23172;BME280;11754;42.664;23.594;2023-02-18T07:45:44;96128.25;;;9.08;45.61
23172;BME280;11754;42.664;23.594;2023-02-18T07:48:10;96133.66;;;9.07;45.86
23172;BME280;11754;42.664;23.594;2023-02-18T07:50:39;96118.69;;;9.27;46.52
23172;BME280;11754;42.664;23.594;2023-02-18T07:53:04;96141.38;;;9.75;45.21
23172;BME280;11754;42.664;23.594;2023-02-18T07:55:30;96147.59;;;10.11;44.24
23172;BME280;11754;42.664;23.594;2023-02-18T07:58:19;96138.00;;;9.92;43.92
23172;BME280;11754;42.664;23.594;2023-02-18T08:00:45;96142.63;;;10.08;44.23
23172;BME280;11754;42.664;23.594;2023-02-18T08:03:18;96126.38;;;10.40;43.75
23172;BME280;11754;42.664;23.594;2023-02-18T08:05:47;96141.91;;;10.43;43.58
23172;BME280;11754;42.664;23.594;2023-02-18T08:08:14;96137.69;;;10.68;43.74
23172;BME280;11754;42.664;23.594;2023-02-18T08:10:40;96125.09;;;10.62;43.10
23172;BME280;11754;42.664;23.594;2023-02-18T08:13:06;96130.66;;;10.95;42.17
23172;BME280;11754;42.664;23.594;2023-02-18T08:15:31;96128.19;;;10.93;42.82
23172;BME280;11754;42.664;23.594;2023-02-18T08:17:57;96123.31;;;11.06;41.58
23172;BME280;11754;42.664;23.594;2023-02-18T08:20:22;96135.47;;;10.81;41.90
23172;BME280;11754;42.664;23.594;2023-02-18T08:22:48;96130.13;;;11.09;40.17
23172;BME280;11754;42.664;23.594;2023-02-18T08:25:13;96129.47;;;10.89;40.21
23172;BME280;11754;42.664;23.594;2023-02-18T08:27:39;96128.47;;;11.34;40.30
23172;BME280;11754;42.664;23.594;2023-02-18T08:30:06;96130.28;;;11.86;39.91
23172;BME280;11754;42.664;23.594;2023-02-18T08:32:31;96119.91;;;12.35;39.40
23172;BME280;11754;42.664;23.594;2023-02-18T08:34:57;96120.16;;;12.74;36.85
23172;BME280;11754;42.664;23.594;2023-02-18T08:37:22;96107.56;;;13.41;35.28
23172;BME280;11754;42.664;23.594;2023-02-18T08:39:48;96104.56;;;14.08;33.85
23172;BME280;11754;42.664;23.594;2023-02-18T08:42:13;96096.56;;;14.16;33.91
23172;BME280;11754;42.664;23.594;2023-02-18T08:44:39;96101.31;;;15.44;32.32
23172;BME280;11754;42.664;23.594;2023-02-18T08:47:04;96083.94;;;15.86;31.41
23172;BME280;11754;42.664;23.594;2023-02-18T08:49:29;96087.06;;;15.75;30.56
23172;BME280;11754;42.664;23.594;2023-02-18T08:51:55;96087.38;;;16.31;30.05
23172;BME280;11754;42.664;23.594;2023-02-18T08:54:20;96077.09;;;16.28;29.07
23172;BME280;11754;42.664;23.594;2023-02-18T08:56:46;96090.59;;;15.52;30.34
23172;BME280;11754;42.664;23.594;2023-02-18T08:59:11;96090.59;;;15.14;30.84
23172;BME280;11754;42.664;23.594;2023-02-18T09:01:36;96089.91;;;15.21;30.66
23172;BME280;11754;42.664;23.594;2023-02-18T09:04:02;96104.13;;;14.90;30.97
23172;BME280;11754;42.664;23.594;2023-02-18T09:06:27;96104.56;;;14.71;31.46
23172;BME280;11754;42.664;23.594;2023-02-18T09:08:52;96093.59;;;14.74;31.46
23172;BME280;11754;42.664;23.594;2023-02-18T09:11:18;96105.31;;;14.56;31.71
23172;BME280;11754;42.664;23.594;2023-02-18T09:13:44;96091.75;;;14.74;31.67
23172;BME280;11754;42.664;23.594;2023-02-18T09:16:12;96092.91;;;14.49;31.76
23172;BME280;11754;42.664;23.594;2023-02-18T09:18:39;96087.63;;;15.32;31.03
23172;BME280;11754;42.664;23.594;2023-02-18T09:21:06;96097.94;;;15.12;30.39
23172;BME280;11754;42.664;23.594;2023-02-18T09:23:33;96097.66;;;15.45;29.72
23172;BME280;11754;42.664;23.594;2023-02-18T09:25:58;96093.78;;;15.33;29.92
23172;BME280;11754;42.664;23.594;2023-02-18T09:28:25;96088.63;;;15.84;29.08
23172;BME280;11754;42.664;23.594;2023-02-18T09:30:51;96082.84;;;15.95;29.00
23172;BME280;11754;42.664;23.594;2023-02-18T09:33:17;96086.53;;;15.94;29.34
23172;BME280;11754;42.664;23.594;2023-02-18T09:35:44;96080.22;;;17.11;28.21
23172;BME280;11754;42.664;23.594;2023-02-18T09:38:12;96089.81;;;17.05;27.96
23172;BME280;11754;42.664;23.594;2023-02-18T09:40:42;96080.38;;;17.59;27.03
23172;BME280;11754;42.664;23.594;2023-02-18T09:43:18;96076.66;;;18.90;25.64
23172;BME280;11754;42.664;23.594;2023-02-18T09:45:46;96068.78;;;20.60;24.15
23172;BME280;11754;42.664;23.594;2023-02-18T09:48:12;96054.84;;;23.52;21.12
23172;BME280;11754;42.664;23.594;2023-02-18T09:50:37;96047.72;;;25.02;19.81
23172;BME280;11754;42.664;23.594;2023-02-18T09:53:03;96052.72;;;26.33;18.30
23172;BME280;11754;42.664;23.594;2023-02-18T09:55:35;96051.09;;;28.73;16.20
23172;BME280;11754;42.664;23.594;2023-02-18T09:58:38;96046.44;;;28.00;16.62
23172;BME280;11754;42.664;23.594;2023-02-18T10:01:30;96057.25;;;29.62;15.64
23172;BME280;11754;42.664;23.594;2023-02-18T10:04:03;96048.59;;;31.10;14.63
23172;BME280;11754;42.664;23.594;2023-02-18T10:06:33;96036.03;;;32.36;13.56
23172;BME280;11754;42.664;23.594;2023-02-18T10:09:02;96030.09;;;32.28;13.21
23172;BME280;11754;42.664;23.594;2023-02-18T10:11:30;96023.53;;;31.76;13.49
23172;BME280;11754;42.664;23.594;2023-02-18T10:13:56;96019.34;;;30.81;13.50
23172;BME280;11754;42.664;23.594;2023-02-18T10:16:23;96027.91;;;27.87;15.69
23172;BME280;11754;42.664;23.594;2023-02-18T10:19:00;96011.94;;;27.48;16.24
23172;BME280;11754;42.664;23.594;2023-02-18T10:21:32;96024.53;;;25.52;17.24
23172;BME280;11754;42.664;23.594;2023-02-18T10:24:03;96021.44;;;25.43;17.53
23172;BME280;11754;42.664;23.594;2023-02-18T10:26:33;96019.81;;;26.20;16.74
23172;BME280;11754;42.664;23.594;2023-02-18T10:29:00;96004.09;;;25.39;17.51
23172;BME280;11754;42.664;23.594;2023-02-18T10:31:36;96022.50;;;24.80;18.29
23172;BME280;11754;42.664;23.594;2023-02-18T10:34:13;96012.84;;;24.67;18.58
23172;BME280;11754;42.664;23.594;2023-02-18T10:36:45;96015.56;;;24.55;18.25
23172;BME280;11754;42.664;23.594;2023-02-18T10:39:18;96019.84;;;23.76;18.50
23172;BME280;11754;42.664;23.594;2023-02-18T10:41:54;95999.34;;;23.51;18.97
23172;BME280;11754;42.664;23.594;2023-02-18T10:44:47;96006.72;;;22.78;19.77
23172;BME280;11754;42.664;23.594;2023-02-18T10:50:37;95987.72;;;23.97;19.34
23172;BME280;11754;42.664;23.594;2023-02-18T10:53:17;95967.81;;;28.89;15.34
23172;BME280;11754;42.664;23.594;2023-02-18T10:55:46;95973.56;;;32.10;12.88
23172;BME280;11754;42.664;23.594;2023-02-18T10:58:46;95971.31;;;34.24;11.89
23172;BME280;11754;42.664;23.594;2023-02-18T11:01:18;95965.53;;;36.19;10.81
23172;BME280;11754;42.664;23.594;2023-02-18T11:03:49;95969.34;;;36.00;10.17
23172;BME280;11754;42.664;23.594;2023-02-18T11:06:20;95965.56;;;35.56;10.35
23172;BME280;11754;42.664;23.594;2023-02-18T11:08:46;95951.28;;;37.00;9.80
23172;BME280;11754;42.664;23.594;2023-02-18T11:11:33;95955.94;;;35.68;10.25
23172;BME280;11754;42.664;23.594;2023-02-18T11:14:03;95945.53;;;34.52;11.17
23172;BME280;11754;42.664;23.594;2023-02-18T11:16:40;95942.69;;;32.34;12.49
23172;BME280;11754;42.664;23.594;2023-02-18T11:19:32;95941.75;;;30.29;13.20
23172;BME280;11754;42.664;23.594;2023-02-18T11:22:14;95922.13;;;31.16;13.17
23172;BME280;11754;42.664;23.594;2023-02-18T11:24:40;95916.44;;;31.95;12.61
23172;BME280;11754;42.664;23.594;2023-02-18T11:27:19;95909.75;;;33.52;11.74
23172;BME280;11754;42.664;23.594;2023-02-18T11:29:53;95898.88;;;37.78;9.41
23172;BME280;11754;42.664;23.594;2023-02-18T11:32:19;95889.88;;;39.78;8.03
23172;BME280;11754;42.664;23.594;2023-02-18T11:34:45;95886.13;;;36.66;9.46
23172;BME280;11754;42.664;23.594;2023-02-18T11:37:17;95887.28;;;37.64;8.79
23172;BME280;11754;42.664;23.594;2023-02-18T11:39:45;95876.31;;;40.22;7.93
23172;BME280;11754;42.664;23.594;2023-02-18T11:42:14;95873.63;;;41.35;7.00
23172;BME280;11754;42.664;23.594;2023-02-18T11:44:58;95865.06;;;43.74;6.63
23172;BME280;11754;42.664;23.594;2023-02-18T11:47:35;95855.75;;;44.99;6.23
23172;BME280;11754;42.664;23.594;2023-02-18T11:50:14;95848.44;;;45.59;5.97
23172;BME280;11754;42.664;23.594;2023-02-18T11:52:42;95847.94;;;46.53;5.59
23172;BME280;11754;42.664;23.594;2023-02-18T11:55:19;95830.56;;;46.08;5.91
23172;BME280;11754;42.664;23.594;2023-02-18T11:58:01;95844.16;;;43.57;6.19
23172;BME280;11754;42.664;23.594;2023-02-18T12:03:07;95823.53;;;41.08;7.30
23172;BME280;11754;42.664;23.594;2023-02-18T12:05:39;95824.94;;;41.02;7.47
23172;BME280;11754;42.664;23.594;2023-02-18T12:08:12;95813.19;;;42.00;7.11
23172;BME280;11754;42.664;23.594;2023-02-18T12:10:46;95808.56;;;43.21;6.53
23172;BME280;11754;42.664;23.594;2023-02-18T12:18:53;95803.47;;;40.43;7.67
23172;BME280;11754;42.664;23.594;2023-02-18T12:24:28;95820.00;;;39.78;8.01
23172;BME280;11754;42.664;23.594;2023-02-18T12:27:23;95805.59;;;39.60;8.39
23172;BME280;11754;42.664;23.594;2023-02-18T12:33:01;95806.59;;;34.66;10.36
23172;BME280;11754;42.664;23.594;2023-02-18T12:41:07;95789.38;;;29.85;13.22
23172;BME280;11754;42.664;23.594;2023-02-18T12:43:45;95784.00;;;28.18;14.61
23172;BME280;11754;42.664;23.594;2023-02-18T12:46:32;95776.88;;;29.14;14.06
23172;BME280;11754;42.664;23.594;2023-02-18T12:52:23;95767.28;;;35.25;10.63
23172;BME280;11754;42.664;23.594;2023-02-18T12:57:38;95761.63;;;35.87;10.11
23172;BME280;11754;42.664;23.594;2023-02-18T13:00:21;95758.44;;;36.20;10.04
23172;BME280;11754;42.664;23.594;2023-02-18T13:06:22;95750.88;;;37.16;9.60
23172;BME280;11754;42.664;23.594;2023-02-18T13:09:06;95758.69;;;36.96;9.89
23172;BME280;11754;42.664;23.594;2023-02-18T13:11:57;95755.16;;;37.72;9.43
23172;BME280;11754;42.664;23.594;2023-02-18T13:14:21;95743.06;;;39.76;8.61
23172;BME280;11754;42.664;23.594;2023-02-18T13:16:51;95738.72;;;41.00;7.94
23172;BME280;11754;42.664;23.594;2023-02-18T13:21:53;95746.66;;;40.17;8.18
23172;BME280;11754;42.664;23.594;2023-02-18T13:24:27;95740.34;;;38.07;9.04
23172;BME280;11754;42.664;23.594;2023-02-18T13:27:11;95749.13;;;37.11;9.70
23172;BME280;11754;42.664;23.594;2023-02-18T13:32:16;95752.72;;;33.81;11.47
23172;BME280;11754;42.664;23.594;2023-02-18T13:34:55;95755.91;;;32.72;12.03
23172;BME280;11754;42.664;23.594;2023-02-18T13:38:09;95751.44;;;31.25;13.04
23172;BME280;11754;42.664;23.594;2023-02-18T13:40:37;95759.88;;;29.63;13.96
23172;BME280;11754;42.664;23.594;2023-02-18T13:43:31;95750.84;;;27.70;15.72
23172;BME280;11754;42.664;23.594;2023-02-18T13:48:39;95744.34;;;24.98;17.39
23172;BME280;11754;42.664;23.594;2023-02-18T13:51:06;95740.28;;;24.06;18.46
23172;BME280;11754;42.664;23.594;2023-02-18T13:53:36;95742.22;;;23.65;19.00
23172;BME280;11754;42.664;23.594;2023-02-18T13:56:09;95739.53;;;23.37;19.54
23172;BME280;11754;42.664;23.594;2023-02-18T13:58:47;95730.69;;;22.61;19.69
23172;BME280;11754;42.664;23.594;2023-02-18T14:01:17;95741.25;;;22.50;20.30
23172;BME280;11754;42.664;23.594;2023-02-18T14:06:19;95743.66;;;22.28;20.90
23172;BME280;11754;42.664;23.594;2023-02-18T14:08:46;95749.09;;;21.98;21.26
23172;BME280;11754;42.664;23.594;2023-02-18T14:16:03;95754.41;;;21.15;21.87
23172;BME280;11754;42.664;23.594;2023-02-18T14:26:30;95759.22;;;20.51;22.82
23172;BME280;11754;42.664;23.594;2023-02-18T14:29:01;95753.22;;;20.30;22.89
23172;BME280;11754;42.664;23.594;2023-02-18T14:31:50;95755.16;;;20.23;23.10
23172;BME280;11754;42.664;23.594;2023-02-18T14:34:38;95752.56;;;20.10;23.39
23172;BME280;11754;42.664;23.594;2023-02-18T14:40:46;95757.47;;;19.63;24.21
23172;BME280;11754;42.664;23.594;2023-02-18T14:51:56;95758.66;;;20.67;23.24
23172;BME280;11754;42.664;23.594;2023-02-18T14:54:24;95764.25;;;22.23;21.71
23172;BME280;11754;42.664;23.594;2023-02-18T14:59:19;95746.84;;;24.83;19.12
23172;BME280;11754;42.664;23.594;2023-02-18T15:01:46;95748.00;;;25.31;18.54